AerodromSadržaj METAR izveštaja
LYBEMETAR LYBE 280130Z 12019KT 9999 SCT033 18/08 Q1006 NOSIG=
LYBTMETAR LYBT 280130Z 08015KT CAVOK 16/10 Q1006 NOSIG=
LYKVMETAR LYKV 280130Z 12015KT 090V150 CAVOK 19/09 Q1007 NOSIG=
LYNIMETAR LYNI 280130Z 13005KT 100V160 CAVOK 15/07 Q1011 NOSIG=
LYVRMETAR LYVR 280130Z AUTO 12026G54KT CAVOK 19/05 Q1008=
LYUZMETAR LYUZ 280130Z AUTO VRB05KT 9999 -SHRA NSC 13/09 Q1008=
LYPGMETAR LYPG 280130Z 14009KT 120V180 9999 RA FEW027TCU SCT040 BKN080 16/15 Q1009 NOSIG=
LYTVMETAR LYTV 280130Z 16014G24KT 9999 SCT020 BKN030 18/16 Q1007=

Podaci učitani u: 2020-09-28 01:47:53 UTC

METAR, TAF, AIRMET, GAMET, SIGMET

Važna napomena: MET infоrmаciје nа оvim web strаnicаmа imајu infоrmаtivni kаrаktеr, nаmenjene su isključivo vаzduhоplоvnim kоrisnicima, nе smејu sе kоristiti zа bilо kоје kоmеrciјаlnе svrhе, i nе zаmеnjuјu dоkumеntаciјu zа lеt.